createdAt,value
2022-10-24T00:01:56.306Z,45.87
2022-10-24T00:04:26.625Z,45.63
2022-10-24T00:06:54.550Z,45.58
2022-10-24T00:09:27.093Z,45.75
2022-10-24T00:11:54.205Z,45.61
2022-10-24T00:14:21.527Z,45.53
2022-10-24T00:16:57.880Z,45.63
2022-10-24T00:19:27.559Z,45.70
2022-10-24T00:21:54.673Z,45.39
2022-10-24T00:24:26.565Z,45.38
2022-10-24T00:26:59.359Z,45.89
2022-10-24T00:29:29.423Z,45.86
2022-10-24T00:31:57.671Z,45.47
2022-10-24T00:34:25.730Z,45.59
2022-10-24T00:36:58.296Z,45.67
2022-10-24T00:39:25.497Z,45.95
2022-10-24T00:41:58.913Z,45.72
2022-10-24T00:44:33.894Z,45.65
2022-10-24T00:47:10.628Z,45.69
2022-10-24T00:50:00.893Z,46.08
2022-10-24T00:52:35.852Z,45.87
2022-10-24T00:55:06.556Z,45.95
2022-10-24T00:57:36.616Z,45.76
2022-10-24T01:00:09.779Z,46.01
2022-10-24T01:02:39.781Z,45.89
2022-10-24T01:05:08.539Z,45.87
2022-10-24T01:07:35.719Z,45.78
2022-10-24T01:10:37.337Z,45.45
2022-10-24T01:13:10.472Z,45.55
2022-10-24T01:15:50.155Z,45.03
2022-10-24T01:18:25.786Z,45.39
2022-10-24T01:21:06.945Z,44.97
2022-10-24T01:23:46.261Z,44.84
2022-10-24T01:26:33.240Z,44.73
2022-10-24T01:29:16.985Z,45.14
2022-10-24T01:31:56.583Z,44.91
2022-10-24T01:34:30.558Z,44.96
2022-10-24T01:37:04.278Z,44.82
2022-10-24T01:39:34.463Z,44.97
2022-10-24T01:42:09.152Z,45.26
2022-10-24T01:44:40.916Z,45.19
2022-10-24T01:47:15.669Z,45.35
2022-10-24T01:49:45.194Z,45.27
2022-10-24T01:52:17.044Z,45.45
2022-10-24T01:54:45.051Z,45.21
2022-10-24T01:57:16.190Z,45.19
2022-10-24T01:59:49.115Z,45.21
2022-10-24T02:02:23.983Z,45.22
2022-10-24T02:05:01.363Z,45.54
2022-10-24T02:07:29.038Z,45.41
2022-10-24T02:10:00.858Z,45.77
2022-10-24T02:12:31.937Z,45.66
2022-10-24T02:15:03.690Z,45.76
2022-10-24T02:17:36.841Z,45.59
2022-10-24T02:20:04.310Z,45.46
2022-10-24T02:22:37.581Z,45.55
2022-10-24T02:25:24.952Z,45.56
2022-10-24T02:28:10.003Z,45.35
2022-10-24T02:30:42.880Z,45.52
2022-10-24T02:33:13.435Z,45.03
2022-10-24T02:35:41.062Z,45.56
2022-10-24T02:38:21.477Z,45.69
2022-10-24T02:40:50.592Z,45.26
2022-10-24T02:43:19.120Z,45.46
2022-10-24T02:45:49.111Z,45.43
2022-10-24T02:48:18.525Z,45.51
2022-10-24T02:50:45.993Z,45.61
2022-10-24T02:53:22.019Z,45.50
2022-10-24T02:55:51.909Z,45.45
2022-10-24T02:58:22.749Z,45.40
2022-10-24T03:00:49.933Z,45.17
2022-10-24T03:03:22.449Z,44.88
2022-10-24T03:05:51.877Z,45.46
2022-10-24T03:08:21.802Z,45.13
2022-10-24T03:10:49.147Z,45.32
2022-10-24T03:13:19.176Z,45.28
2022-10-24T03:18:14.933Z,45.23
2022-10-24T03:20:44.310Z,44.86
2022-10-24T03:23:14.306Z,44.82
2022-10-24T03:25:46.675Z,45.10
2022-10-24T03:28:16.903Z,45.20
2022-10-24T03:30:50.222Z,45.41
2022-10-24T03:33:19.864Z,45.22
2022-10-24T03:35:49.862Z,44.80
2022-10-24T03:38:18.051Z,45.27
2022-10-24T03:40:48.164Z,45.17
2022-10-24T03:43:18.357Z,45.44
2022-10-24T03:45:45.520Z,45.50
2022-10-24T03:48:12.683Z,45.69
2022-10-24T03:50:40.878Z,45.00
2022-10-24T03:53:07.963Z,45.26
2022-10-24T03:55:35.216Z,45.21
2022-10-24T03:58:08.573Z,45.18
2022-10-24T04:00:40.483Z,45.05
2022-10-24T04:03:07.943Z,45.03
2022-10-24T04:05:41.897Z,45.13
2022-10-24T04:08:09.213Z,44.75
2022-10-24T04:10:39.521Z,44.96
2022-10-24T04:13:11.526Z,44.81
2022-10-24T04:15:39.904Z,44.87
2022-10-24T04:18:10.155Z,44.76
2022-10-24T04:20:40.427Z,44.96
2022-10-24T04:23:07.624Z,45.13
2022-10-24T04:25:35.328Z,45.44
2022-10-24T04:28:08.931Z,45.15
2022-10-24T04:33:16.520Z,45.27
2022-10-24T04:35:50.047Z,45.23
2022-10-24T04:38:17.312Z,44.66
2022-10-24T04:40:45.751Z,45.19
2022-10-24T04:43:15.539Z,44.91
2022-10-24T04:45:48.528Z,44.98
2022-10-24T04:48:19.002Z,44.90
2022-10-24T04:50:46.483Z,44.76
2022-10-24T04:53:13.914Z,44.99
2022-10-24T04:55:41.081Z,45.02
2022-10-24T04:58:10.975Z,45.37
2022-10-24T05:00:43.432Z,45.04
2022-10-24T05:03:13.523Z,45.22
2022-10-24T05:05:41.013Z,44.49
2022-10-24T05:08:13.418Z,44.34
2022-10-24T05:10:46.340Z,44.99
2022-10-24T05:13:16.957Z,44.65
2022-10-24T05:15:47.092Z,45.03
2022-10-24T05:18:17.255Z,45.14
2022-10-24T05:20:49.829Z,44.73
2022-10-24T05:23:16.961Z,45.15
2022-10-24T05:25:46.354Z,44.85
2022-10-24T05:28:16.475Z,45.26
2022-10-24T05:30:45.359Z,44.93
2022-10-24T05:33:15.256Z,44.79
2022-10-24T05:35:46.112Z,45.04
2022-10-24T05:38:23.131Z,44.87
2022-10-24T05:40:51.697Z,45.24
2022-10-24T05:43:24.886Z,45.15
2022-10-24T05:45:56.112Z,45.25
2022-10-24T05:48:31.482Z,45.03
2022-10-24T05:51:04.143Z,45.53
2022-10-24T05:53:56.207Z,45.53
2022-10-24T05:56:29.654Z,45.08
2022-10-24T05:59:01.066Z,45.53
2022-10-24T06:01:30.144Z,45.09
2022-10-24T06:04:06.829Z,45.42
2022-10-24T06:06:44.757Z,44.91
2022-10-24T06:09:16.065Z,45.03
2022-10-24T06:11:51.818Z,45.33
2022-10-24T06:14:24.473Z,45.35
2022-10-24T06:16:54.873Z,45.46
2022-10-24T06:19:31.362Z,45.57
2022-10-24T06:21:59.215Z,45.25
2022-10-24T06:24:30.457Z,45.11
2022-10-24T06:27:03.247Z,45.23
2022-10-24T06:29:31.123Z,45.55
2022-10-24T06:32:01.919Z,45.55
2022-10-24T06:34:37.491Z,45.06
2022-10-24T06:37:09.951Z,45.13
2022-10-24T06:39:44.373Z,44.91
2022-10-24T06:42:17.118Z,45.38
2022-10-24T06:44:53.075Z,45.43
2022-10-24T06:47:20.487Z,45.15
2022-10-24T06:49:51.915Z,44.87
2022-10-24T06:52:19.331Z,44.05
2022-10-24T06:54:49.548Z,42.06
2022-10-24T06:57:22.183Z,42.84
2022-10-24T06:59:50.714Z,42.51
2022-10-24T07:02:25.468Z,42.38
2022-10-24T07:04:53.423Z,41.67
2022-10-24T07:07:32.731Z,40.72
2022-10-24T07:10:12.419Z,39.95
2022-10-24T07:12:44.443Z,39.60
2022-10-24T07:15:17.043Z,39.80
2022-10-24T07:17:45.871Z,39.33
2022-10-24T07:20:14.964Z,39.29
2022-10-24T07:22:45.854Z,39.00
2022-10-24T07:25:25.308Z,39.14
2022-10-24T07:28:10.522Z,39.95
2022-10-24T07:30:46.029Z,39.99
2022-10-24T07:33:21.588Z,41.12
2022-10-24T07:35:51.864Z,40.62
2022-10-24T07:38:22.015Z,41.47
2022-10-24T07:40:57.245Z,41.74
2022-10-24T07:43:24.975Z,42.51
2022-10-24T07:48:36.019Z,43.05
2022-10-24T07:51:10.021Z,43.38
2022-10-24T07:53:41.627Z,43.61
2022-10-24T07:56:13.426Z,43.78
2022-10-24T07:58:49.643Z,43.92
2022-10-24T08:01:25.639Z,43.81
2022-10-24T08:04:01.924Z,44.72
2022-10-24T08:06:43.695Z,44.33
2022-10-24T08:09:20.590Z,43.92
2022-10-24T08:11:57.166Z,43.49
2022-10-24T08:14:27.684Z,42.86
2022-10-24T08:16:58.738Z,42.99
2022-10-24T08:19:28.615Z,43.70
2022-10-24T08:22:05.716Z,43.24
2022-10-24T08:24:43.889Z,43.53
2022-10-24T08:27:13.624Z,43.82
2022-10-24T08:29:45.345Z,43.49
2022-10-24T08:32:18.601Z,43.90
2022-10-24T08:34:46.091Z,43.58
2022-10-24T08:37:15.676Z,43.52
2022-10-24T08:39:43.383Z,44.02
2022-10-24T08:42:18.688Z,44.01
2022-10-24T08:44:56.666Z,43.90
2022-10-24T08:50:21.218Z,44.47
2022-10-24T08:52:58.294Z,45.29
2022-10-24T08:55:48.891Z,45.32
2022-10-24T08:58:46.151Z,45.42
2022-10-24T09:01:24.440Z,44.69
2022-10-24T09:03:58.561Z,44.66
2022-10-24T09:06:30.349Z,45.12
2022-10-24T09:09:01.995Z,45.55
2022-10-24T09:11:43.486Z,45.34
2022-10-24T09:14:19.506Z,45.65
2022-10-24T09:16:54.618Z,44.76
2022-10-24T09:19:29.289Z,44.19
2022-10-24T09:21:58.394Z,44.20
2022-10-24T09:24:47.763Z,44.49
2022-10-24T09:27:19.700Z,44.20
2022-10-24T09:29:52.988Z,44.76
2022-10-24T09:32:28.269Z,45.08
2022-10-24T09:34:58.657Z,44.74
2022-10-24T09:37:41.255Z,44.57
2022-10-24T09:40:30.164Z,44.25
2022-10-24T09:43:08.375Z,44.61
2022-10-24T09:45:44.199Z,44.51
2022-10-24T09:48:20.134Z,44.98
2022-10-24T09:50:52.499Z,44.99
2022-10-24T09:53:43.159Z,45.29
2022-10-24T09:56:16.435Z,45.68
2022-10-24T09:58:48.917Z,46.52
2022-10-24T10:01:17.705Z,46.08
2022-10-24T10:04:02.817Z,45.78
2022-10-24T10:06:36.561Z,46.03
2022-10-24T10:09:14.742Z,45.24
2022-10-24T10:12:00.701Z,45.15
2022-10-24T10:14:40.523Z,44.80
2022-10-24T10:17:19.090Z,44.57
2022-10-24T10:19:48.457Z,44.61
2022-10-24T10:22:27.769Z,44.28
2022-10-24T10:24:59.151Z,44.80
2022-10-24T10:27:41.953Z,44.36
2022-10-24T10:30:15.939Z,44.84
2022-10-24T10:32:57.026Z,44.47
2022-10-24T10:35:33.569Z,44.50
2022-10-24T10:38:19.701Z,44.44
2022-10-24T10:41:07.587Z,44.22
2022-10-24T10:44:03.269Z,44.10
2022-10-24T10:46:30.749Z,44.22
2022-10-24T10:49:04.498Z,44.16
2022-10-24T10:51:40.277Z,44.17
2022-10-24T10:54:17.171Z,44.35
2022-10-24T10:56:47.798Z,44.57
2022-10-24T10:59:29.341Z,44.50
2022-10-24T11:02:20.899Z,44.65
2022-10-24T11:04:54.648Z,44.92
2022-10-24T11:07:33.482Z,44.62
2022-10-24T11:10:06.066Z,45.25
2022-10-24T11:12:44.473Z,44.67
2022-10-24T11:15:29.142Z,44.89
2022-10-24T11:18:34.485Z,45.31
2022-10-24T11:21:08.845Z,45.45
2022-10-24T11:26:27.084Z,45.44
2022-10-24T11:28:57.565Z,45.50
2022-10-24T11:31:38.299Z,45.25
2022-10-24T11:34:21.502Z,45.63
2022-10-24T11:37:03.250Z,45.07
2022-10-24T11:39:41.733Z,45.70
2022-10-24T11:42:22.860Z,46.02
2022-10-24T11:45:03.737Z,45.51
2022-10-24T11:47:40.767Z,45.21
2022-10-24T11:50:15.716Z,45.54
2022-10-24T11:52:45.322Z,45.93
2022-10-24T11:55:23.443Z,46.21
2022-10-24T11:57:57.888Z,46.70
2022-10-24T12:00:35.140Z,46.38
2022-10-24T12:03:21.867Z,46.55
2022-10-24T12:06:01.191Z,47.26
2022-10-24T12:08:50.736Z,47.20
2022-10-24T12:11:44.432Z,47.79
2022-10-24T12:14:27.127Z,47.16
2022-10-24T12:17:17.004Z,47.95
2022-10-24T12:19:56.429Z,47.73
2022-10-24T12:22:35.431Z,47.34
2022-10-24T12:25:16.227Z,47.51
2022-10-24T12:27:59.150Z,47.83
2022-10-24T12:30:29.017Z,47.19
2022-10-24T12:33:02.073Z,47.54
2022-10-24T12:35:36.292Z,46.99
2022-10-24T12:38:15.346Z,46.59
2022-10-24T12:40:48.922Z,45.87
2022-10-24T12:43:29.394Z,45.52
2022-10-24T12:46:12.911Z,46.72
2022-10-24T12:48:49.341Z,46.95
2022-10-24T12:51:29.108Z,47.38
2022-10-24T12:54:13.445Z,47.30
2022-10-24T12:56:50.044Z,46.62
2022-10-24T12:59:25.422Z,46.85
2022-10-24T13:02:19.074Z,46.70
2022-10-24T13:04:46.769Z,47.11
2022-10-24T13:07:23.899Z,47.41
2022-10-24T13:10:11.311Z,46.58
2022-10-24T13:12:41.629Z,46.58
2022-10-24T13:15:24.262Z,47.21
2022-10-24T13:18:04.806Z,47.04
2022-10-24T13:20:40.051Z,47.47
2022-10-24T13:23:27.135Z,47.62
2022-10-24T13:25:59.100Z,46.84
2022-10-24T13:28:31.933Z,47.61
2022-10-24T13:31:03.380Z,47.31
2022-10-24T13:33:33.814Z,48.26
2022-10-24T13:36:28.193Z,48.65
2022-10-24T13:39:05.703Z,48.00
2022-10-24T13:41:44.221Z,47.54
2022-10-24T13:44:36.658Z,47.23
2022-10-24T13:47:17.759Z,47.56
2022-10-24T13:50:08.952Z,46.79
2022-10-24T13:52:44.558Z,46.38
2022-10-24T13:55:33.303Z,46.60
2022-10-24T13:58:00.840Z,47.61
2022-10-24T14:00:44.836Z,48.02
2022-10-24T14:03:24.463Z,47.18
2022-10-24T14:06:01.890Z,47.73
2022-10-24T14:08:36.795Z,47.93
2022-10-24T14:11:16.043Z,48.15
2022-10-24T14:14:04.298Z,48.09
2022-10-24T14:16:40.301Z,46.22
2022-10-24T14:19:31.987Z,46.10
2022-10-24T14:22:15.093Z,46.95
2022-10-24T14:24:50.452Z,47.49
2022-10-24T14:27:24.241Z,47.42
2022-10-24T14:29:58.945Z,46.42
2022-10-24T14:32:35.910Z,46.41
2022-10-24T14:35:11.992Z,46.36
2022-10-24T14:37:49.176Z,46.42
2022-10-24T14:40:26.775Z,47.19
2022-10-24T14:42:55.140Z,48.00
2022-10-24T14:45:27.045Z,48.36
2022-10-24T14:48:00.805Z,48.23
2022-10-24T14:50:45.762Z,48.37
2022-10-24T14:53:31.285Z,49.14
2022-10-24T14:56:03.730Z,49.19
2022-10-24T14:58:37.965Z,48.45
2022-10-24T15:01:26.164Z,48.42
2022-10-24T15:03:56.555Z,48.05
2022-10-24T15:06:28.363Z,48.66
2022-10-24T15:09:06.576Z,48.26
2022-10-24T15:11:46.904Z,47.81
2022-10-24T15:14:36.244Z,46.39
2022-10-24T15:17:08.616Z,46.23
2022-10-24T15:19:39.315Z,46.78
2022-10-24T15:22:32.098Z,46.54
2022-10-24T15:25:07.559Z,46.66
2022-10-24T15:27:39.686Z,47.11
2022-10-24T15:30:18.329Z,47.17
2022-10-24T15:32:49.100Z,47.35
2022-10-24T15:35:21.751Z,47.14
2022-10-24T15:38:01.558Z,47.36
2022-10-24T15:40:34.387Z,47.84
2022-10-24T15:43:06.905Z,47.80
2022-10-24T15:45:39.836Z,47.99
2022-10-24T15:48:10.397Z,48.16
2022-10-24T15:50:45.095Z,48.25
2022-10-24T15:53:28.930Z,47.87
2022-10-24T15:56:01.783Z,47.17
2022-10-24T15:58:33.117Z,47.17
2022-10-24T16:01:00.562Z,46.39
2022-10-24T16:03:32.445Z,46.75
2022-10-24T16:06:00.035Z,45.91
2022-10-24T16:08:28.142Z,45.96
2022-10-24T16:10:58.392Z,45.85
2022-10-24T16:13:25.903Z,45.66
2022-10-24T16:15:57.025Z,46.00
2022-10-24T16:18:26.732Z,46.15
2022-10-24T16:21:00.553Z,46.07
2022-10-24T16:23:33.988Z,45.94
2022-10-24T16:26:04.130Z,46.57
2022-10-24T16:28:32.578Z,46.73
2022-10-24T16:31:05.203Z,46.46
2022-10-24T16:33:37.996Z,46.56
2022-10-24T16:36:08.255Z,46.15
2022-10-24T16:38:40.847Z,46.51
2022-10-24T16:41:20.995Z,46.51
2022-10-24T16:43:56.551Z,46.42
2022-10-24T16:46:34.419Z,46.50
2022-10-24T16:51:47.374Z,46.13
2022-10-24T16:54:18.002Z,46.54
2022-10-24T16:56:53.336Z,45.95
2022-10-24T16:59:28.807Z,46.31
2022-10-24T17:02:01.372Z,46.37
2022-10-24T17:04:33.814Z,46.29
2022-10-24T17:07:12.428Z,46.64
2022-10-24T17:09:42.265Z,46.16
2022-10-24T17:12:12.459Z,46.53
2022-10-24T17:14:44.597Z,46.19
2022-10-24T17:17:17.253Z,46.07
2022-10-24T17:19:50.507Z,45.70
2022-10-24T17:22:30.345Z,46.30
2022-10-24T17:25:03.294Z,46.30
2022-10-24T17:27:35.364Z,45.89
2022-10-24T17:30:05.559Z,45.86
2022-10-24T17:32:35.961Z,46.11
2022-10-24T17:35:03.457Z,46.45
2022-10-24T17:37:52.190Z,46.03
2022-10-24T17:40:25.216Z,46.36
2022-10-24T17:42:56.115Z,46.49
2022-10-24T17:45:24.323Z,46.06
2022-10-24T17:47:57.128Z,46.14
2022-10-24T17:50:32.042Z,46.15
2022-10-24T17:53:01.285Z,46.59
2022-10-24T17:55:45.032Z,46.55
2022-10-24T17:58:15.501Z,46.72
2022-10-24T18:00:46.287Z,46.41
2022-10-24T18:03:14.175Z,46.67
2022-10-24T18:05:48.575Z,46.87
2022-10-24T18:08:18.026Z,46.62
2022-10-24T18:10:48.023Z,46.67
2022-10-24T18:13:15.140Z,47.08
2022-10-24T18:15:44.731Z,46.80
2022-10-24T18:18:13.003Z,46.64
2022-10-24T18:20:40.207Z,47.25
2022-10-24T18:23:12.009Z,46.33
2022-10-24T18:25:45.544Z,47.09
2022-10-24T18:28:13.654Z,46.56
2022-10-24T18:30:46.663Z,47.03
2022-10-24T18:33:16.300Z,46.53
2022-10-24T18:35:45.868Z,46.71
2022-10-24T18:38:19.063Z,46.84
2022-10-24T18:40:55.213Z,45.86
2022-10-24T18:43:23.012Z,46.55
2022-10-24T18:45:52.723Z,46.83
2022-10-24T18:48:22.381Z,46.45
2022-10-24T18:50:55.403Z,46.85
2022-10-24T18:53:28.039Z,46.62
2022-10-24T18:56:00.224Z,46.86
2022-10-24T18:58:33.657Z,46.72
2022-10-24T19:01:04.211Z,46.97
2022-10-24T19:03:39.954Z,46.64
2022-10-24T19:06:09.499Z,46.72
2022-10-24T19:08:42.874Z,46.83
2022-10-24T19:11:15.126Z,46.73
2022-10-24T19:13:43.223Z,46.66
2022-10-24T19:16:18.184Z,46.69
2022-10-24T19:18:56.585Z,47.32
2022-10-24T19:21:24.509Z,46.80
2022-10-24T19:23:55.080Z,47.03
2022-10-24T19:26:25.427Z,46.83
2022-10-24T19:29:01.181Z,46.83
2022-10-24T19:31:33.206Z,46.32
2022-10-24T19:34:05.864Z,46.71
2022-10-24T19:36:35.750Z,46.51
2022-10-24T19:39:05.639Z,46.81
2022-10-24T19:41:38.449Z,46.81
2022-10-24T19:44:05.739Z,46.73
2022-10-24T19:46:33.085Z,46.87
2022-10-24T19:49:08.780Z,47.03
2022-10-24T19:51:41.344Z,47.14
2022-10-24T19:54:14.121Z,46.82
2022-10-24T19:56:46.265Z,46.75
2022-10-24T19:59:16.843Z,46.80
2022-10-24T20:01:47.674Z,46.79
2022-10-24T20:04:17.668Z,47.14
2022-10-24T20:06:48.102Z,46.82
2022-10-24T20:09:18.241Z,46.85
2022-10-24T20:11:45.460Z,47.40
2022-10-24T20:14:15.092Z,47.20
2022-10-24T20:16:44.210Z,46.84
2022-10-24T20:19:14.312Z,47.45
2022-10-24T20:21:44.559Z,46.84
2022-10-24T20:24:16.799Z,47.28
2022-10-24T20:26:46.368Z,47.27
2022-10-24T20:29:16.127Z,46.84
2022-10-24T20:31:46.518Z,47.15
2022-10-24T20:34:16.856Z,47.04
2022-10-24T20:36:49.697Z,47.05
2022-10-24T20:39:23.925Z,46.79
2022-10-24T20:41:56.119Z,46.98
2022-10-24T20:44:24.330Z,47.28
2022-10-24T20:46:55.523Z,46.92
2022-10-24T20:49:27.027Z,46.81
2022-10-24T20:51:59.467Z,47.15
2022-10-24T20:54:29.372Z,46.88
2022-10-24T20:57:02.254Z,47.15
2022-10-24T20:59:29.456Z,47.17
2022-10-24T21:01:57.176Z,46.99
2022-10-24T21:04:26.845Z,46.97
2022-10-24T21:06:54.110Z,46.87
2022-10-24T21:09:23.950Z,46.84
2022-10-24T21:11:57.271Z,46.69
2022-10-24T21:14:30.285Z,46.09
2022-10-24T21:16:58.619Z,46.51
2022-10-24T21:19:31.317Z,46.57
2022-10-24T21:22:01.355Z,46.62
2022-10-24T21:24:33.377Z,46.65
2022-10-24T21:27:05.374Z,46.40
2022-10-24T21:29:35.371Z,46.53
2022-10-24T21:32:06.336Z,46.49
2022-10-24T21:34:38.422Z,46.67
2022-10-24T21:37:05.648Z,46.86
2022-10-24T21:39:38.338Z,46.91
2022-10-24T21:42:11.257Z,46.52
2022-10-24T21:44:38.523Z,46.93
2022-10-24T21:47:10.371Z,47.10
2022-10-24T21:49:37.723Z,47.23
2022-10-24T21:52:07.877Z,47.01
2022-10-24T21:54:35.259Z,46.66
2022-10-24T21:57:05.516Z,46.72
2022-10-24T21:59:35.184Z,46.77
2022-10-24T22:02:04.700Z,47.20
2022-10-24T22:04:32.896Z,46.73
2022-10-24T22:07:03.153Z,46.83
2022-10-24T22:09:33.627Z,46.87
2022-10-24T22:12:22.920Z,46.77
2022-10-24T22:14:59.043Z,46.27
2022-10-24T22:17:36.343Z,46.45
2022-10-24T22:20:06.815Z,46.62
2022-10-24T22:22:39.002Z,46.49
2022-10-24T22:25:06.418Z,46.48
2022-10-24T22:27:33.561Z,46.24
2022-10-24T22:30:03.317Z,46.65
2022-10-24T22:32:39.018Z,46.58
2022-10-24T22:35:06.450Z,46.49
2022-10-24T22:37:39.192Z,46.82
2022-10-24T22:40:29.704Z,46.76
2022-10-24T22:43:02.374Z,46.59
2022-10-24T22:45:38.077Z,46.71
2022-10-24T22:48:08.892Z,46.52
2022-10-24T22:50:42.258Z,46.58
2022-10-24T22:53:12.325Z,46.51
2022-10-24T22:55:52.135Z,47.03
2022-10-24T22:58:24.962Z,46.74
2022-10-24T23:00:58.943Z,46.67
2022-10-24T23:03:50.378Z,46.61
2022-10-24T23:06:25.022Z,46.74
2022-10-24T23:09:04.672Z,47.05
2022-10-24T23:11:37.567Z,46.67
2022-10-24T23:14:04.816Z,46.85
2022-10-24T23:16:58.287Z,46.71
2022-10-24T23:19:29.333Z,46.92
2022-10-24T23:22:09.778Z,47.04
2022-10-24T23:24:39.658Z,46.79
2022-10-24T23:27:12.035Z,46.72
2022-10-24T23:29:46.582Z,46.61
2022-10-24T23:32:36.897Z,46.49
2022-10-24T23:35:07.023Z,46.56
2022-10-24T23:37:38.737Z,46.60
2022-10-24T23:40:23.403Z,46.67
2022-10-24T23:42:54.379Z,46.73
2022-10-24T23:45:23.033Z,46.95
2022-10-24T23:48:00.772Z,46.73
2022-10-24T23:50:48.395Z,46.72
2022-10-24T23:53:17.846Z,46.93
2022-10-24T23:55:50.631Z,47.00
2022-10-24T23:58:24.961Z,46.99
